Terminal Aerodrome Forecast
Issued by NWS Cleveland, OH

Home | Current Version | Previous Version | Text Only | Print | Product List | Glossary Off
Versions: 1 2 3 4 5 6 7 8 9 10 11 12 13 14 15 16

992
FTUS41 KCLE 211456 AAA
TAFCAK
TAF AMD
KCAK 211456Z 2115/2212 VRB05KT P6SM SCT028 BKN200
      TEMPO 2115/2117 BKN028
     FM211800 32006KT P6SM SCT050 BKN080
     FM212000 31006KT P6SM FEW060 SCT200
     FM220200 00000KT P6SM FEW200
     FM220900 14004KT P6SM BKN100=

USA.gov is the U.S. government's official web portal to all federal, state and local government web resources and services.